Terminal Aerodrome Forecast
Issued by NWS Upton, NY

Home | Current Version | Previous Version | Text Only | Print | Product List | Glossary On
Versions: 1 2 3 4 5 6 7 8 9 10 11 12 13 14 15 16 17 18 19 20 21 22 23 24 25 26 27 28 29 30 31
000
FTUS41 KOKX 040531
TAFLGA
TAF
KLGA 040531Z 0406/0506 15006KT P6SM FEW060 BKN150
     FM040900 12005KT P6SM SCT060 OVC100
     FM041400 06008KT P6SM SCT035 OVC060
      TEMPO 0415/0418 5SM -RA BKN035
     FM041800 03011KT P6SM SCT035 OVC060
      TEMPO 0418/0420 5SM -RA BKN035
     FM050000 02006KT P6SM BKN060=

USA.gov is the U.S. government's official web portal to all federal, state and local government web resources and services.